Time;durP1;ratioP1;P1;durP2;ratioP2;P2;SDS_P1;SDS_P2;PMS_P1;PMS_P2;Temp;Humidity;BMP_temperature;BMP_pressure;BME280_temperature;BME280_humidity;BME280_pressure;Samples;Min_cycle;Max_cycle;Signal;HPM_P1;HPM_P2
2022/03/17 00:02:07;;;;;;;50.35;24.35;;;8.00;99.90;;;;;;5017233;28;20065;-77
2022/03/17 00:04:32;;;;;;;49.67;25.17;;;8.00;99.90;;;;;;5014741;28;20542;-77
2022/03/17 00:06:59;;;;;;;53.40;25.63;;;8.00;99.90;;;;;;5032274;28;20029;-76
2022/03/17 00:09:24;;;;;;;51.70;25.35;;;8.00;99.90;;;;;;5034072;28;20108;-76
2022/03/17 00:11:51;;;;;;;55.10;25.65;;;8.00;99.90;;;;;;5034657;28;20470;-77
2022/03/17 00:14:16;;;;;;;58.63;27.27;;;8.00;99.90;;;;;;5034476;28;20017;-77
2022/03/17 00:16:42;;;;;;;56.28;27.15;;;8.00;99.90;;;;;;5033167;28;20026;-76
2022/03/17 00:19:08;;;;;;;50.03;25.33;;;7.90;99.90;;;;;;5037124;28;20028;-76
2022/03/17 00:21:38;;;;;;;56.55;27.48;;;8.00;99.90;;;;;;5039743;28;20497;-77
2022/03/17 00:24:07;;;;;;;57.33;28.50;;;7.90;99.90;;;;;;5041687;28;20029;-76
2022/03/17 00:26:33;;;;;;;66.47;28.55;;;7.90;99.90;;;;;;5035691;28;20032;-76
2022/03/17 00:28:58;;;;;;;57.33;27.58;;;7.90;99.90;;;;;;5021751;28;20386;-76
2022/03/17 00:31:24;;;;;;;55.75;27.75;;;7.90;99.90;;;;;;5040311;28;20026;-77
2022/03/17 00:33:49;;;;;;;61.70;29.10;;;7.90;99.90;;;;;;5028028;28;20036;-77
2022/03/17 00:36:15;;;;;;;61.90;28.23;;;7.80;99.90;;;;;;5026546;28;20026;-76
2022/03/17 00:38:41;;;;;;;58.80;28.17;;;7.80;99.90;;;;;;5035969;28;20026;-77
2022/03/17 00:41:06;;;;;;;64.25;31.23;;;7.80;99.90;;;;;;5036501;28;20075;-76
2022/03/17 00:43:34;;;;;;;65.68;30.92;;;7.80;99.90;;;;;;5018437;28;20037;-78
2022/03/17 00:46:00;;;;;;;70.95;32.60;;;7.80;99.90;;;;;;5019307;28;20459;-77
2022/03/17 00:48:25;;;;;;;70.75;32.05;;;7.80;99.90;;;;;;5036894;28;20059;-77
2022/03/17 00:50:51;;;;;;;69.85;33.88;;;7.80;99.90;;;;;;5037206;28;20034;-77
2022/03/17 00:53:16;;;;;;;74.40;34.35;;;7.80;99.90;;;;;;5036446;28;20384;-76
2022/03/17 00:55:42;;;;;;;74.00;34.22;;;7.70;99.90;;;;;;5036029;28;20052;-77
2022/03/17 00:58:08;;;;;;;75.40;37.10;;;7.70;99.90;;;;;;5036456;28;20037;-77
2022/03/17 01:00:34;;;;;;;79.85;37.85;;;7.70;99.90;;;;;;5035865;28;20017;-76
2022/03/17 01:03:01;;;;;;;79.70;38.13;;;7.70;99.90;;;;;;5036866;28;20501;-79
2022/03/17 01:05:26;;;;;;;79.32;37.83;;;7.70;99.90;;;;;;5038721;28;20121;-77
2022/03/17 01:07:55;;;;;;;73.43;37.38;;;7.60;99.90;;;;;;5037032;28;20490;-77
2022/03/17 01:10:22;;;;;;;83.30;38.22;;;7.60;99.90;;;;;;5026132;23;20590;-74
2022/03/17 01:12:48;;;;;;;84.40;38.53;;;7.60;99.90;;;;;;5014902;28;20030;-73
2022/03/17 01:15:15;;;;;;;84.40;39.88;;;7.70;99.90;;;;;;5015518;28;20080;-73
2022/03/17 01:17:40;;;;;;;84.32;40.65;;;7.70;99.90;;;;;;5014546;28;20036;-73
2022/03/17 01:20:07;;;;;;;81.82;39.92;;;7.60;99.90;;;;;;5014524;28;20096;-74
2022/03/17 01:22:33;;;;;;;84.78;40.17;;;7.50;99.90;;;;;;5014376;28;20036;-73
2022/03/17 01:24:59;;;;;;;92.65;43.35;;;7.50;99.90;;;;;;4996933;28;20029;-75
2022/03/17 01:27:25;;;;;;;90.97;42.25;;;7.50;99.90;;;;;;5013975;28;20051;-75
2022/03/17 01:29:51;;;;;;;95.22;44.63;;;7.50;99.90;;;;;;5014084;28;20030;-75
2022/03/17 01:32:18;;;;;;;92.25;43.03;;;7.50;99.90;;;;;;5014299;28;20018;-75
2022/03/17 01:34:44;;;;;;;87.70;42.95;;;7.50;99.90;;;;;;5014197;28;20022;-76
2022/03/17 01:37:09;;;;;;;98.15;44.17;;;7.50;99.90;;;;;;5013952;28;20018;-74
2022/03/17 01:39:36;;;;;;;95.95;44.78;;;7.50;99.90;;;;;;5014296;28;20518;-75
2022/03/17 01:42:03;;;;;;;103.50;46.28;;;7.50;99.90;;;;;;5014168;28;20112;-75
2022/03/17 01:44:29;;;;;;;93.50;44.63;;;7.50;99.90;;;;;;5013848;28;20053;-74
2022/03/17 01:49:40;;;;;;;93.32;44.15;;;7.50;99.90;;;;;;5014163;28;20203;-73
2022/03/17 01:52:06;;;;;;;99.57;47.45;;;7.50;99.90;;;;;;5014029;28;20042;-74
2022/03/17 01:54:32;;;;;;;94.55;45.78;;;7.50;99.90;;;;;;5013818;28;20026;-74
2022/03/17 01:57:00;;;;;;;97.22;47.85;;;7.50;99.90;;;;;;5013618;28;20081;-73
2022/03/17 01:59:27;;;;;;;104.35;47.90;;;7.40;99.90;;;;;;5013835;28;20480;-75
2022/03/17 02:01:56;;;;;;;104.50;47.63;;;7.40;99.90;;;;;;5013816;28;20026;-73
2022/03/17 02:04:22;;;;;;;101.70;46.33;;;7.40;99.90;;;;;;5013432;28;20050;-73
2022/03/17 02:06:48;;;;;;;101.75;48.90;;;7.40;99.90;;;;;;5013630;28;20603;-74
2022/03/17 02:09:14;;;;;;;104.18;49.00;;;7.40;99.90;;;;;;5013646;28;20022;-74
2022/03/17 02:14:25;;;;;;;104.20;49.03;;;7.40;99.90;;;;;;5014248;28;20032;-76
2022/03/17 02:16:52;;;;;;;99.47;47.83;;;7.40;99.90;;;;;;5015547;28;20022;-77
2022/03/17 02:19:21;;;;;;;106.22;50.10;;;7.40;99.90;;;;;;5016491;28;20034;-79
2022/03/17 02:21:48;;;;;;;100.93;48.97;;;7.50;99.90;;;;;;5020896;28;20425;-79
2022/03/17 02:27:00;;;;;;;106.47;50.42;;;7.50;99.90;;;;;;5034254;28;20033;-79
2022/03/17 02:29:26;;;;;;;106.90;50.85;;;7.50;99.90;;;;;;5014805;28;20017;-77
2022/03/17 02:31:52;;;;;;;105.65;49.15;;;7.50;99.90;;;;;;5015136;28;20031;-78
2022/03/17 02:34:20;;;;;;;102.35;50.85;;;7.50;99.90;;;;;;5015497;28;20052;-78
2022/03/17 02:36:48;;;;;;;102.28;50.47;;;7.50;99.90;;;;;;5019465;28;20102;-78
2022/03/17 02:39:19;;;;;;;105.05;50.65;;;7.50;99.90;;;;;;5023289;28;20029;-79
2022/03/17 02:41:44;;;;;;;103.72;50.30;;;7.50;99.90;;;;;;5019160;28;20054;-78
2022/03/17 02:44:10;;;;;;;101.13;48.85;;;7.50;99.90;;;;;;4999337;28;20034;-77
2022/03/17 02:46:36;;;;;;;107.13;51.05;;;7.50;99.90;;;;;;5015697;28;20072;-79
2022/03/17 02:49:03;;;;;;;106.65;51.08;;;7.40;99.90;;;;;;5016476;28;20030;-78
2022/03/17 02:51:28;;;;;;;104.45;51.35;;;7.40;99.90;;;;;;5017177;28;20072;-77
2022/03/17 02:53:54;;;;;;;106.22;50.03;;;7.40;99.90;;;;;;5016507;28;20021;-76
2022/03/17 02:56:19;;;;;;;105.65;51.35;;;7.40;99.90;;;;;;5018020;28;20514;-77
2022/03/17 02:58:45;;;;;;;103.32;51.05;;;7.50;99.90;;;;;;5013109;28;20026;-75
2022/03/17 03:01:10;;;;;;;102.43;51.08;;;7.50;99.90;;;;;;5013797;28;20026;-76
2022/03/17 03:03:36;;;;;;;103.88;50.80;;;7.50;99.90;;;;;;4996067;28;20171;-77
2022/03/17 03:06:02;;;;;;;102.00;51.85;;;7.40;99.90;;;;;;5017415;28;20029;-75
2022/03/17 03:08:28;;;;;;;105.70;52.63;;;7.60;99.90;;;;;;5014633;28;20025;-76
2022/03/17 03:10:54;;;;;;;100.18;52.15;;;7.50;99.90;;;;;;5012781;28;20049;-75
2022/03/17 03:13:20;;;;;;;113.00;54.55;;;7.50;99.90;;;;;;5433232;23;20025;-75
2022/03/17 03:15:46;;;;;;;103.72;53.17;;;7.50;99.90;;;;;;5583901;22;20021;-73
2022/03/17 03:18:12;;;;;;;109.53;53.55;;;7.50;99.90;;;;;;4984496;28;20043;-76
2022/03/17 03:31:00;;;;;;;104.03;53.78;;;7.50;99.90;;;;;;5143498;22;20056;-75
2022/03/17 03:59:26;;;;;;;104.05;54.25;;;7.60;99.90;;;;;;5734897;22;20909;-75
2022/03/17 04:04:31;;;;;;;109.68;56.53;;;7.70;99.90;;;;;;5724841;22;20040;-77
2022/03/17 04:07:08;;;;;;;107.38;54.22;;;7.70;99.90;;;;;;5626296;22;20045;-75
2022/03/17 04:09:38;;;;;;;98.20;53.70;;;7.70;99.90;;;;;;5057668;28;20044;-76
2022/03/17 04:12:14;;;;;;;108.18;55.45;;;7.80;99.90;;;;;;5057019;28;20533;-72
2022/03/17 04:14:40;;;;;;;107.97;53.88;;;7.80;99.90;;;;;;5024207;28;20029;-74
2022/03/17 04:17:07;;;;;;;105.72;54.88;;;7.70;99.90;;;;;;5057591;28;20105;-75
2022/03/17 04:19:33;;;;;;;103.63;54.65;;;7.90;99.90;;;;;;5057288;28;20028;-74
2022/03/17 04:21:59;;;;;;;106.95;56.10;;;7.90;99.90;;;;;;5040974;28;20025;-72
2022/03/17 04:24:33;;;;;;;102.22;54.05;;;7.70;99.90;;;;;;5024090;28;20026;-76
2022/03/17 04:27:05;;;;;;;109.07;56.03;;;7.80;99.90;;;;;;5022283;28;20036;-75
2022/03/17 04:29:54;;;;;;;109.15;56.13;;;7.70;99.90;;;;;;5024567;28;20077;-77
2022/03/17 04:32:27;;;;;;;106.47;56.30;;;7.90;99.90;;;;;;5043072;28;20045;-76
2022/03/17 04:35:02;;;;;;;104.32;54.85;;;7.80;99.90;;;;;;5024315;28;20038;-75
2022/03/17 04:37:32;;;;;;;110.00;55.97;;;7.80;99.90;;;;;;5024189;28;20061;-75
2022/03/17 04:39:58;;;;;;;105.93;57.05;;;7.90;99.90;;;;;;5040801;28;20077;-75
2022/03/17 04:42:24;;;;;;;103.53;55.10;;;7.90;99.90;;;;;;5007704;28;20041;-73
2022/03/17 04:45:10;;;;;;;103.97;55.17;;;7.90;99.90;;;;;;5024397;28;20033;-74
2022/03/17 04:47:50;;;;;;;103.97;54.50;;;7.90;99.90;;;;;;5026734;28;20037;-74
2022/03/17 04:50:19;;;;;;;106.22;55.20;;;7.90;99.90;;;;;;5023638;28;20056;-77
2022/03/17 04:55:38;;;;;;;103.47;55.40;;;7.80;99.90;;;;;;5008113;28;20112;-74
2022/03/17 04:58:43;;;;;;;104.28;55.63;;;7.90;99.90;;;;;;5044350;28;20040;-73
2022/03/17 05:01:49;;;;;;;;;;;7.90;99.90;;;;;;5046493;28;20060;-73
2022/03/17 05:04:52;;;;;;;108.15;55.95;;;8.10;99.90;;;;;;5055611;28;19924;-74
2022/03/17 05:07:28;;;;;;;107.25;56.05;;;8.00;99.90;;;;;;5056353;28;20033;-75
2022/03/17 05:10:12;;;;;;;104.15;56.45;;;8.00;99.90;;;;;;5028734;28;20026;-75
2022/03/17 05:12:39;;;;;;;109.65;57.33;;;7.90;99.90;;;;;;5039078;28;20528;-75
2022/03/17 05:15:07;;;;;;;109.28;56.08;;;8.00;99.90;;;;;;5056950;28;20021;-74
2022/03/17 05:17:33;;;;;;;108.18;56.13;;;8.00;99.90;;;;;;5039127;28;20044;-75
2022/03/17 05:19:59;;;;;;;100.97;56.70;;;8.10;99.90;;;;;;5056470;28;20017;-72
2022/03/17 05:22:29;;;;;;;105.85;58.08;;;8.10;99.90;;;;;;5056427;28;20052;-73
2022/03/17 05:24:55;;;;;;;111.85;56.58;;;8.10;99.90;;;;;;5039059;28;20052;-75
2022/03/17 05:27:20;;;;;;;106.43;56.40;;;8.10;99.90;;;;;;5056395;28;20036;-73
2022/03/17 05:29:47;;;;;;;105.85;57.13;;;8.10;99.90;;;;;;5038720;28;20044;-74
2022/03/17 05:32:13;;;;;;;108.78;57.47;;;8.10;99.90;;;;;;5055973;28;20045;-74
2022/03/17 05:34:46;;;;;;;109.22;59.03;;;8.10;99.90;;;;;;5056219;28;20029;-75
2022/03/17 05:37:16;;;;;;;111.22;56.88;;;8.20;99.90;;;;;;5038662;28;20053;-74
2022/03/17 05:39:50;;;;;;;114.03;57.10;;;8.20;99.90;;;;;;5056403;28;20056;-75
2022/03/17 05:42:22;;;;;;;112.05;58.30;;;8.20;99.90;;;;;;5056589;28;20018;-74
2022/03/17 05:44:54;;;;;;;108.40;59.05;;;8.20;99.90;;;;;;5038393;28;20030;-74
2022/03/17 05:47:25;;;;;;;98.38;56.28;;;8.00;99.90;;;;;;5057437;28;20025;-73
2022/03/17 05:50:00;;;;;;;108.55;59.13;;;8.20;99.90;;;;;;5038969;28;20053;-74
2022/03/17 05:52:30;;;;;;;109.45;57.08;;;8.20;99.90;;;;;;5055548;28;20025;-72
2022/03/17 05:54:56;;;;;;;114.25;58.47;;;8.10;99.90;;;;;;5036961;28;20029;-72
2022/03/17 05:57:24;;;;;;;103.40;55.70;;;8.20;99.90;;;;;;5038420;28;20100;-74
2022/03/17 05:59:50;;;;;;;110.55;58.53;;;8.20;99.90;;;;;;5056021;28;20029;-75
2022/03/17 06:02:15;;;;;;;111.53;59.22;;;8.20;99.90;;;;;;5056153;28;20034;-74
2022/03/17 06:04:41;;;;;;;110.25;58.70;;;8.10;99.90;;;;;;5040456;28;20021;-74
2022/03/17 06:07:12;;;;;;;106.20;57.58;;;8.30;99.90;;;;;;5059613;28;20021;-75
2022/03/17 06:09:46;;;;;;;107.38;57.90;;;8.30;99.90;;;;;;5042432;28;20014;-75
2022/03/17 06:12:15;;;;;;;108.50;58.40;;;8.30;99.90;;;;;;5058930;28;20010;-75
2022/03/17 06:14:46;;;;;;;106.75;58.13;;;8.20;99.90;;;;;;5059116;28;20100;-75
2022/03/17 06:25:02;;;;;;;112.25;57.10;;;8.20;99.90;;;;;;5792631;22;24077;-74
2022/03/17 06:32:39;;;;;;;113.25;59.45;;;8.30;99.90;;;;;;5989779;22;20111;-73
2022/03/17 06:35:10;;;;;;;108.20;59.47;;;8.20;99.90;;;;;;5026141;28;20017;-72
2022/03/17 06:37:43;;;;;;;;;;;8.30;99.90;;;;;;5042764;28;20014;-73
2022/03/17 06:40:35;;;;;;;111.63;59.05;;;8.30;99.90;;;;;;5041422;28;19908;-73
2022/03/17 06:43:41;;;;;;;111.25;59.72;;;8.30;99.90;;;;;;5031994;28;20097;-73
2022/03/17 06:46:08;;;;;;;112.53;58.15;;;8.40;99.90;;;;;;5063941;22;20046;-76
2022/03/17 06:48:34;;;;;;;111.78;58.85;;;8.40;99.90;;;;;;5037679;28;20030;-76
2022/03/17 06:51:00;;;;;;;110.18;59.05;;;8.40;99.90;;;;;;5035361;28;20029;-76
2022/03/17 06:53:26;;;;;;;100.70;56.78;;;8.40;99.90;;;;;;5035922;28;20032;-76
2022/03/17 06:55:51;;;;;;;108.80;60.08;;;8.40;99.90;;;;;;5035547;28;20104;-76
2022/03/17 06:58:17;;;;;;;113.15;60.72;;;8.50;99.90;;;;;;5019237;28;20029;-76
2022/03/17 07:00:42;;;;;;;115.63;59.90;;;8.50;99.90;;;;;;5036770;28;20530;-77
2022/03/17 07:03:08;;;;;;;111.55;60.42;;;8.50;99.90;;;;;;5019615;28;20040;-77
2022/03/17 07:05:33;;;;;;;106.78;57.80;;;8.50;99.90;;;;;;5021335;28;20029;-77
2022/03/17 07:07:59;;;;;;;106.38;56.95;;;8.50;99.90;;;;;;5051174;28;20033;-77
2022/03/17 07:10:27;;;;;;;103.50;57.90;;;8.50;99.90;;;;;;5051158;28;20025;-76
2022/03/17 07:12:53;;;;;;;100.40;57.35;;;8.60;99.90;;;;;;5058076;28;20083;-78
2022/03/17 07:15:19;;;;;;;113.72;59.00;;;8.60;99.90;;;;;;5057169;28;20017;-76
2022/03/17 07:17:45;;;;;;;106.90;57.85;;;8.60;99.90;;;;;;5039109;28;20036;-77
2022/03/17 07:20:15;;;;;;;108.30;59.35;;;8.70;99.90;;;;;;5056399;28;20700;-76
2022/03/17 07:22:43;;;;;;;104.15;58.00;;;8.60;99.90;;;;;;5056496;28;20021;-74
2022/03/17 07:25:09;;;;;;;106.50;57.55;;;8.60;99.90;;;;;;5053758;28;20363;-73
2022/03/17 07:27:40;;;;;;;108.95;59.47;;;8.60;99.90;;;;;;5054043;28;20421;-74
2022/03/17 07:30:08;;;;;;;102.03;57.00;;;8.60;99.90;;;;;;5054319;28;20108;-74
2022/03/17 07:32:33;;;;;;;105.40;56.95;;;8.70;99.90;;;;;;5043275;28;20036;-75
2022/03/17 07:34:59;;;;;;;109.32;61.22;;;8.70;99.90;;;;;;5051313;28;20030;-77
2022/03/17 07:37:24;;;;;;;108.50;59.22;;;8.70;99.90;;;;;;5053074;28;20045;-77
2022/03/17 07:39:50;;;;;;;105.93;58.28;;;8.70;99.90;;;;;;5039146;28;20033;-76
2022/03/17 07:42:15;;;;;;;105.72;59.20;;;8.70;99.90;;;;;;5056914;28;20025;-78
2022/03/17 07:44:41;;;;;;;110.00;61.63;;;8.70;99.90;;;;;;5056456;28;20025;-77
2022/03/17 07:47:08;;;;;;;107.30;59.25;;;8.70;99.90;;;;;;5039551;28;20049;-75
2022/03/17 07:49:37;;;;;;;114.63;60.42;;;8.70;99.90;;;;;;5055544;28;20025;-75
2022/03/17 07:52:04;;;;;;;105.53;60.03;;;8.80;99.90;;;;;;5039263;28;20017;-76
2022/03/17 07:54:30;;;;;;;104.75;59.25;;;8.80;99.90;;;;;;5056357;28;20040;-75
2022/03/17 07:56:55;;;;;;;105.50;59.42;;;8.90;99.90;;;;;;5054680;28;20029;-76
2022/03/17 07:59:21;;;;;;;106.85;59.97;;;8.90;99.90;;;;;;5041578;28;20439;-80
2022/03/17 08:01:47;;;;;;;112.03;59.90;;;8.90;99.90;;;;;;5038222;28;20419;-76
2022/03/17 08:04:13;;;;;;;104.88;60.53;;;8.80;99.90;;;;;;5035289;28;20478;-76
2022/03/17 08:06:38;;;;;;;112.47;60.45;;;8.90;99.90;;;;;;5016621;28;20032;-76
2022/03/17 08:09:04;;;;;;;99.63;57.85;;;8.90;99.90;;;;;;5016322;28;20049;-76
2022/03/17 08:11:30;;;;;;;99.25;58.00;;;8.90;99.90;;;;;;5019249;28;20036;-77
2022/03/17 08:13:55;;;;;;;104.32;59.58;;;8.90;99.90;;;;;;5035977;28;20057;-76
2022/03/17 08:16:21;;;;;;;103.60;59.40;;;8.90;99.90;;;;;;5035757;28;20025;-76
2022/03/17 08:18:46;;;;;;;115.70;60.17;;;8.90;99.90;;;;;;5018340;28;20052;-79
2022/03/17 08:21:13;;;;;;;107.72;60.60;;;9.00;99.90;;;;;;5039953;28;20061;-77
2022/03/17 08:23:38;;;;;;;104.28;58.28;;;9.00;99.90;;;;;;5037878;28;20056;-78
2022/03/17 08:26:04;;;;;;;105.78;59.08;;;9.00;99.90;;;;;;5042576;28;20366;-77
2022/03/17 08:28:30;;;;;;;99.47;57.88;;;9.00;99.90;;;;;;5047437;28;20034;-75
2022/03/17 08:30:55;;;;;;;105.35;58.90;;;9.10;99.90;;;;;;5052082;28;20061;-77
2022/03/17 08:33:21;;;;;;;100.50;56.67;;;9.10;99.90;;;;;;5030111;28;20053;-78
2022/03/17 08:35:47;;;;;;;94.60;55.22;;;9.10;99.90;;;;;;5040536;28;20112;-76
2022/03/17 08:38:13;;;;;;;99.03;56.55;;;9.10;99.90;;;;;;5020047;28;20029;-78
2022/03/17 08:40:40;;;;;;;107.82;56.83;;;9.20;99.90;;;;;;5044094;28;20390;-76
2022/03/17 08:43:07;;;;;;;98.25;56.35;;;9.30;99.90;;;;;;5046834;28;20032;-76
2022/03/17 08:51:01;;;;;;;101.28;57.67;;;9.40;99.90;;;;;;5039126;28;20044;-75
2022/03/17 08:53:27;;;;;;;100.13;57.13;;;9.30;99.90;;;;;;5022464;28;20033;-77
2022/03/17 08:55:53;;;;;;;102.32;57.67;;;9.30;99.90;;;;;;5040809;28;20028;-77
2022/03/17 08:58:19;;;;;;;108.88;59.17;;;9.30;99.90;;;;;;5045734;28;20029;-76
2022/03/17 09:00:44;;;;;;;147.35;75.43;;;9.30;99.90;;;;;;5042953;28;20026;-78
2022/03/17 09:03:10;;;;;;;101.43;58.00;;;9.40;99.90;;;;;;5045892;28;20056;-78
2022/03/17 09:05:36;;;;;;;102.55;59.15;;;9.40;99.90;;;;;;5042191;28;20025;-78
2022/03/17 09:08:06;;;;;;;110.72;60.38;;;9.40;99.90;;;;;;5023876;28;20389;-78
2022/03/17 09:10:36;;;;;;;101.80;59.65;;;9.40;99.90;;;;;;5039051;28;20501;-77
2022/03/17 09:13:09;;;;;;;101.80;58.35;;;9.40;99.90;;;;;;5045316;28;20038;-77
2022/03/17 09:15:39;;;;;;;101.63;57.97;;;9.20;99.90;;;;;;5044299;28;20021;-79
2022/03/17 09:18:10;;;;;;;107.78;62.05;;;9.10;99.90;;;;;;5022883;28;20021;-78
2022/03/17 09:20:37;;;;;;;104.72;60.92;;;9.10;99.90;;;;;;5040807;28;20017;-79
2022/03/17 09:23:03;;;;;;;105.70;61.75;;;9.10;99.90;;;;;;5038378;28;20447;-77
2022/03/17 09:25:31;;;;;;;108.75;62.95;;;9.00;99.90;;;;;;5038811;28;20037;-78
2022/03/17 09:27:56;;;;;;;109.45;61.20;;;9.00;99.90;;;;;;5044169;28;20498;-79
2022/03/17 09:30:23;;;;;;;108.03;63.65;;;9.00;99.90;;;;;;5045348;28;20025;-80
2022/03/17 09:32:52;;;;;;;106.70;60.95;;;9.10;99.90;;;;;;5029497;28;20060;-81
2022/03/17 09:35:18;;;;;;;111.65;63.65;;;9.00;99.90;;;;;;5027939;28;20029;-80
2022/03/17 09:37:44;;;;;;;103.68;63.08;;;9.00;99.90;;;;;;5032030;28;20017;-78
2022/03/17 09:40:11;;;;;;;106.93;62.85;;;8.90;99.90;;;;;;5043168;28;20032;-79
2022/03/17 09:42:38;;;;;;;104.53;63.10;;;9.00;99.90;;;;;;5050424;28;20041;-79
2022/03/17 09:45:06;;;;;;;109.15;61.17;;;8.90;99.90;;;;;;5023073;28;20040;-78
2022/03/17 09:47:35;;;;;;;106.28;62.65;;;8.90;99.90;;;;;;5050015;28;20044;-79
2022/03/17 09:50:03;;;;;;;111.97;64.32;;;8.90;99.90;;;;;;5046233;28;20021;-78
2022/03/17 09:52:30;;;;;;;109.53;64.72;;;9.00;99.90;;;;;;5054522;28;20097;-78
2022/03/17 09:54:56;;;;;;;113.22;67.20;;;9.10;99.90;;;;;;5034265;28;20028;-79
2022/03/17 09:57:23;;;;;;;123.25;66.35;;;9.00;99.90;;;;;;5048522;28;20021;-78
2022/03/17 09:59:53;;;;;;;109.97;65.43;;;9.00;99.90;;;;;;5022989;28;20517;-79
2022/03/17 10:02:20;;;;;;;106.43;64.63;;;9.00;99.90;;;;;;5024591;28;20150;-78
2022/03/17 10:04:47;;;;;;;116.60;65.75;;;9.00;99.90;;;;;;5029141;28;20422;-79
2022/03/17 10:07:16;;;;;;;114.93;64.80;;;8.90;99.90;;;;;;5047742;28;20028;-78
2022/03/17 10:09:43;;;;;;;109.47;65.82;;;8.90;99.90;;;;;;5040562;28;20017;-74
2022/03/17 10:12:10;;;;;;;113.65;65.10;;;8.90;99.90;;;;;;5020099;28;20064;-75
2022/03/17 10:14:41;;;;;;;106.55;62.17;;;9.00;99.90;;;;;;5035978;28;20028;-75
2022/03/17 10:17:28;;;;;;;106.22;62.00;;;9.10;99.90;;;;;;5035909;28;20068;-75
2022/03/17 10:20:15;;;;;;;101.25;61.45;;;9.10;99.90;;;;;;5035172;28;20074;-76
2022/03/17 10:22:52;;;;;;;102.05;62.05;;;9.10;99.90;;;;;;5035726;28;20104;-76
2022/03/17 10:25:19;;;;;;;92.43;57.63;;;9.10;99.90;;;;;;5017823;28;20560;-80
2022/03/17 10:27:46;;;;;;;102.47;60.65;;;9.10;99.90;;;;;;5040885;28;20045;-77
2022/03/17 10:30:12;;;;;;;99.65;59.53;;;9.10;99.90;;;;;;5036566;28;20029;-78
2022/03/17 10:32:39;;;;;;;99.45;61.15;;;9.00;99.90;;;;;;5019735;28;20048;-78
2022/03/17 10:35:08;;;;;;;104.85;60.83;;;9.00;99.90;;;;;;5038015;28;20108;-76
2022/03/17 10:37:36;;;;;;;100.00;61.55;;;9.00;99.90;;;;;;5042162;28;20572;-77
2022/03/17 10:40:08;;;;;;;104.60;61.80;;;9.10;99.90;;;;;;5028195;28;20018;-76
2022/03/17 10:42:34;;;;;;;103.95;61.13;;;9.00;99.90;;;;;;5044967;28;20025;-76
2022/03/17 10:45:05;;;;;;;100.78;59.80;;;9.00;99.90;;;;;;5035510;28;20059;-78
2022/03/17 10:47:38;;;;;;;105.07;62.08;;;9.00;99.90;;;;;;5036166;28;20033;-76
2022/03/17 10:50:09;;;;;;;100.15;60.22;;;9.00;99.90;;;;;;5036905;28;20033;-76
2022/03/17 10:52:52;;;;;;;98.03;60.80;;;9.00;99.90;;;;;;5019862;28;20022;-77
2022/03/17 10:55:28;;;;;;;103.45;61.22;;;9.00;99.90;;;;;;5017171;28;20021;-77
2022/03/17 10:57:58;;;;;;;101.03;60.13;;;9.10;99.90;;;;;;5035843;28;20025;-76
2022/03/17 11:00:28;;;;;;;91.05;54.25;;;9.10;99.90;;;;;;5036658;28;20417;-76
2022/03/17 11:02:58;;;;;;;87.03;53.60;;;9.10;99.90;;;;;;5036091;28;20470;-77
2022/03/17 11:05:28;;;;;;;82.50;52.75;;;9.10;99.90;;;;;;5039318;28;20056;-77
2022/03/17 11:07:57;;;;;;;83.80;51.85;;;9.10;99.90;;;;;;5017886;28;20033;-76
2022/03/17 11:10:24;;;;;;;79.32;46.15;;;9.10;99.90;;;;;;5020564;28;20032;-75
2022/03/17 11:12:50;;;;;;;70.07;43.70;;;9.10;99.90;;;;;;5037193;28;20474;-76
2022/03/17 11:15:25;;;;;;;59.25;34.70;;;9.20;99.90;;;;;;5037672;28;20104;-76
2022/03/17 11:17:53;;;;;;;51.33;27.80;;;9.10;99.90;;;;;;5038205;28;20029;-77
2022/03/17 11:20:22;;;;;;;39.33;16.83;;;9.20;99.90;;;;;;5019681;28;20059;-77
2022/03/17 11:23:03;;;;;;;37.50;16.35;;;9.20;99.90;;;;;;5022066;28;20386;-76
2022/03/17 11:25:29;;;;;;;36.20;15.13;;;9.10;99.90;;;;;;5018614;28;20025;-75
2022/03/17 11:27:59;;;;;;;39.10;15.07;;;9.10;99.90;;;;;;5038199;28;20037;-77
2022/03/17 11:30:31;;;;;;;44.83;14.63;;;9.10;99.90;;;;;;5020769;28;20025;-76
2022/03/17 11:32:58;;;;;;;39.05;13.75;;;9.10;99.90;;;;;;5018290;28;20387;-76
2022/03/17 11:35:29;;;;;;;38.10;12.95;;;9.20;99.90;;;;;;5035303;28;20478;-76
2022/03/17 11:38:17;;;;;;;38.67;12.90;;;9.20;99.90;;;;;;5018325;28;20402;-75
2022/03/17 11:41:15;;;;;;;36.58;12.18;;;9.20;99.90;;;;;;5037887;28;20013;-77
2022/03/17 11:44:02;;;;;;;31.63;11.25;;;9.20;99.90;;;;;;5037733;28;20037;-80
2022/03/17 11:46:44;;;;;;;37.45;11.43;;;9.30;99.90;;;;;;5047149;28;20092;-76
2022/03/17 11:49:42;;;;;;;35.65;12.40;;;9.40;99.90;;;;;;5041307;28;20053;-76
2022/03/17 11:52:09;;;;;;;42.10;12.43;;;9.40;99.90;;;;;;5045571;28;20085;-76
2022/03/17 11:54:35;;;;;;;34.42;9.73;;;9.40;99.90;;;;;;5053472;28;20085;-76
2022/03/17 11:57:04;;;;;;;28.20;8.80;;;9.50;99.90;;;;;;5055140;28;20038;-76
2022/03/17 11:59:50;;;;;;;28.55;8.32;;;9.50;99.90;;;;;;5056103;28;20006;-75
2022/03/17 12:02:17;;;;;;;38.20;7.20;;;9.50;99.90;;;;;;5056715;28;20029;-75
2022/03/17 12:04:51;;;;;;;30.50;6.97;;;9.40;99.90;;;;;;5055876;28;20020;-76
2022/03/17 12:07:19;;;;;;;22.23;7.53;;;9.30;99.90;;;;;;5056746;28;20032;-76
2022/03/17 12:09:45;;;;;;;21.67;6.82;;;9.40;99.90;;;;;;5056523;28;20072;-76
2022/03/17 12:12:25;;;;;;;26.40;5.45;;;9.40;99.90;;;;;;5056153;28;20045;-76
2022/03/17 12:14:54;;;;;;;28.92;5.13;;;9.50;99.90;;;;;;5022551;28;20029;-77
2022/03/17 12:17:23;;;;;;;25.48;4.68;;;9.60;99.90;;;;;;5039638;28;20025;-76
2022/03/17 12:20:14;;;;;;;23.10;3.72;;;9.70;99.90;;;;;;5038832;28;20072;-76
2022/03/17 12:22:43;;;;;;;21.98;3.90;;;9.70;99.90;;;;;;5038809;28;20075;-76
2022/03/17 12:25:19;;;;;;;23.65;5.97;;;9.80;99.90;;;;;;5038633;28;20030;-76
2022/03/17 12:27:51;;;;;;;26.25;3.88;;;9.80;99.90;;;;;;5020954;28;20029;-77
2022/03/17 12:30:18;;;;;;;18.98;2.88;;;9.80;99.90;;;;;;5039967;28;20048;-76
2022/03/17 12:32:53;;;;;;;15.63;3.03;;;9.80;99.90;;;;;;5040200;28;20033;-77
2022/03/17 12:35:21;;;;;;;17.02;2.83;;;9.80;99.90;;;;;;5042193;28;20032;-76
2022/03/17 12:37:47;;;;;;;20.33;2.75;;;9.70;99.90;;;;;;5040772;28;20055;-75
2022/03/17 12:40:18;;;;;;;18.45;2.78;;;9.60;99.90;;;;;;5037170;28;20071;-75
2022/03/17 12:42:45;;;;;;;16.90;2.33;;;9.60;99.90;;;;;;5038274;28;20653;-76
2022/03/17 12:45:16;;;;;;;18.52;2.35;;;9.60;99.90;;;;;;5020724;28;20030;-76
2022/03/17 12:47:43;;;;;;;19.05;2.78;;;9.50;99.90;;;;;;5039892;28;20041;-76
2022/03/17 12:50:18;;;;;;;16.30;2.40;;;9.60;99.90;;;;;;5039990;28;20041;-78
2022/03/17 12:52:46;;;;;;;16.25;3.15;;;9.50;99.90;;;;;;5022716;28;20037;-79
2022/03/17 12:55:14;;;;;;;17.70;2.63;;;9.60;99.90;;;;;;5041907;28;20393;-74
2022/03/17 12:57:41;;;;;;;21.70;3.15;;;9.70;99.90;;;;;;5023513;28;20021;-78
2022/03/17 13:00:08;;;;;;;21.88;3.50;;;9.80;99.90;;;;;;5023792;28;20018;-77
2022/03/17 13:02:34;;;;;;;20.60;3.58;;;10.00;99.90;;;;;;5042418;28;20026;-78
2022/03/17 13:06:53;;;;;;;22.48;2.88;;;10.20;99.90;;;;;;5042761;28;20483;-77
2022/03/17 13:07:47;;;;;;;23.75;3.45;;;10.20;99.90;;;;;;5040888;28;20144;-77
2022/03/17 13:10:16;;;;;;;24.98;3.70;;;10.30;99.90;;;;;;5023953;28;20461;-76
2022/03/17 13:15:28;;;;;;;31.65;4.60;;;10.30;99.90;;;;;;5049775;28;20029;-79
2022/03/17 13:18:02;;;;;;;35.85;4.40;;;10.30;99.90;;;;;;5043957;28;20073;-77
2022/03/17 13:20:27;;;;;;;26.00;4.22;;;10.20;99.90;;;;;;5045136;28;20525;-76
2022/03/17 13:23:01;;;;;;;28.95;4.05;;;10.10;99.90;;;;;;5025850;28;20041;-77
2022/03/17 13:25:28;;;;;;;30.98;5.20;;;10.00;99.90;;;;;;5042087;28;20025;-76
2022/03/17 13:28:12;;;;;;;29.95;4.65;;;9.90;99.90;;;;;;5045010;28;20485;-79
2022/03/17 13:30:52;;;;;;;29.75;4.32;;;9.90;99.90;;;;;;5046240;28;20037;-77
2022/03/17 13:33:28;;;;;;;23.67;3.70;;;9.80;99.90;;;;;;5039772;28;20047;-78
2022/03/17 13:35:54;;;;;;;26.08;3.95;;;9.80;99.90;;;;;;5039708;28;20021;-76
2022/03/17 13:38:28;;;;;;;36.72;4.53;;;9.80;99.90;;;;;;5021205;28;20018;-76
2022/03/17 13:40:56;;;;;;;33.58;4.13;;;9.80;99.90;;;;;;5023283;28;20028;-78
2022/03/17 13:43:26;;;;;;;38.08;4.80;;;9.80;99.90;;;;;;5043261;28;20033;-78
2022/03/17 13:45:52;;;;;;;29.17;4.50;;;9.80;99.90;;;;;;5041575;28;20031;-77
2022/03/17 13:48:21;;;;;;;30.58;5.40;;;9.70;99.90;;;;;;5042213;28;20026;-77
2022/03/17 13:50:50;;;;;;;52.60;5.07;;;9.70;99.90;;;;;;5022262;28;20026;-79
2022/03/17 13:53:25;;;;;;;35.08;3.85;;;9.70;99.90;;;;;;5037368;28;20025;-78
2022/03/17 13:56:26;;;;;;;42.80;4.90;;;9.80;99.90;;;;;;5040582;28;20362;-77